Time;durP1;ratioP1;P1;durP2;ratioP2;P2;SDS_P1;SDS_P2;PMS_P1;PMS_P2;Temp;Humidity;BMP_temperature;BMP_pressure;BME280_temperature;BME280_humidity;BME280_pressure;Samples;Min_cycle;Max_cycle;Signal;HPM_P1;HPM_P2
2022/03/16 00:02:10;;;;;;;10.77;3.90;;;8.80;95.90;;;;;;5071912;28;20507;-45
2022/03/16 00:04:37;;;;;;;13.57;4.33;;;8.90;95.80;;;;;;5072499;28;20484;-44
2022/03/16 00:07:05;;;;;;;13.13;7.63;;;8.90;95.70;;;;;;5072292;28;20478;-45
2022/03/16 00:09:32;;;;;;;21.57;6.03;;;8.90;96.40;;;;;;5071700;28;20464;-44
2022/03/16 00:11:59;;;;;;;24.00;6.73;;;8.60;95.90;;;;;;5071919;28;20495;-44
2022/03/16 00:14:26;;;;;;;12.30;5.73;;;8.20;96.80;;;;;;5072032;28;20472;-45
2022/03/16 00:16:53;;;;;;;17.13;6.20;;;8.10;97.00;;;;;;5072304;28;20445;-44
2022/03/16 00:19:20;;;;;;;15.60;5.27;;;8.10;97.10;;;;;;5071739;28;20531;-44
2022/03/16 00:21:47;;;;;;;20.33;6.50;;;8.10;96.50;;;;;;5071969;28;20555;-45
2022/03/16 00:24:15;;;;;;;32.73;7.80;;;8.10;96.90;;;;;;5071732;28;20483;-44
2022/03/16 00:26:42;;;;;;;17.53;7.50;;;8.10;97.30;;;;;;5071833;28;20468;-44
2022/03/16 00:29:09;;;;;;;13.87;6.43;;;8.00;97.50;;;;;;5071620;28;20945;-44
2022/03/16 00:31:37;;;;;;;17.53;5.23;;;7.90;97.60;;;;;;5072039;28;20503;-44
2022/03/16 00:34:04;;;;;;;15.67;6.90;;;8.00;97.50;;;;;;5072033;28;20536;-45
2022/03/16 00:36:31;;;;;;;23.30;7.20;;;7.90;97.90;;;;;;5071512;28;20934;-44
2022/03/16 00:38:58;;;;;;;15.23;6.13;;;7.70;97.90;;;;;;5071549;28;20532;-45
2022/03/16 00:41:26;;;;;;;12.87;5.63;;;7.70;98.10;;;;;;5071840;28;20492;-44
2022/03/16 00:43:54;;;;;;;15.67;6.13;;;7.90;98.20;;;;;;5071544;28;20527;-44
2022/03/16 00:46:21;;;;;;;18.17;6.13;;;8.00;98.10;;;;;;5071510;28;20475;-44
2022/03/16 00:48:48;;;;;;;13.40;6.40;;;8.10;97.40;;;;;;5071573;28;20607;-44
2022/03/16 00:51:15;;;;;;;18.07;6.63;;;8.10;97.40;;;;;;5071212;28;20523;-45
2022/03/16 00:53:45;;;;;;;17.80;6.57;;;8.20;97.60;;;;;;5071329;28;20479;-43
2022/03/16 00:56:13;;;;;;;15.60;6.43;;;8.20;98.30;;;;;;5071789;28;20472;-44
2022/03/16 00:58:41;;;;;;;24.00;7.07;;;8.40;98.10;;;;;;5071723;28;20523;-44
2022/03/16 01:01:09;;;;;;;27.27;7.23;;;8.40;98.10;;;;;;5071036;28;20475;-44
2022/03/16 01:03:40;;;;;;;17.37;6.03;;;8.40;98.20;;;;;;5124557;23;20480;-44
2022/03/16 01:06:12;;;;;;;12.80;6.43;;;8.40;98.20;;;;;;5071163;28;20483;-43
2022/03/16 01:08:39;;;;;;;14.17;5.63;;;8.50;98.30;;;;;;5071610;28;20490;-43
2022/03/16 01:11:06;;;;;;;17.03;6.10;;;8.60;98.40;;;;;;5070939;28;20649;-44
2022/03/16 01:13:33;;;;;;;16.27;6.13;;;8.50;98.50;;;;;;5071272;28;20491;-43
2022/03/16 01:16:01;;;;;;;20.40;7.53;;;8.60;98.30;;;;;;5071551;28;20563;-42
2022/03/16 01:18:29;;;;;;;23.10;6.67;;;8.30;98.20;;;;;;5071281;28;20531;-43
2022/03/16 01:20:56;;;;;;;14.30;5.73;;;8.20;98.70;;;;;;5071108;28;20477;-42
2022/03/16 01:23:23;;;;;;;14.97;5.77;;;8.20;98.80;;;;;;5075247;28;20517;-42
2022/03/16 01:25:50;;;;;;;11.53;4.87;;;8.40;98.60;;;;;;5075643;28;20433;-43
2022/03/16 01:28:17;;;;;;;15.17;5.40;;;8.40;98.40;;;;;;5075469;28;20491;-43
2022/03/16 01:30:44;;;;;;;14.00;5.63;;;8.40;98.60;;;;;;5075279;28;20481;-43
2022/03/16 01:33:12;;;;;;;17.03;5.50;;;8.40;98.90;;;;;;5075165;28;20543;-42
2022/03/16 01:35:39;;;;;;;12.90;6.47;;;8.40;98.70;;;;;;5075222;28;20555;-42
2022/03/16 01:38:06;;;;;;;19.23;6.60;;;8.40;99.00;;;;;;5075356;28;20578;-43
2022/03/16 01:40:33;;;;;;;19.90;6.27;;;8.40;99.20;;;;;;5075089;28;20531;-42
2022/03/16 01:43:00;;;;;;;21.83;5.00;;;8.50;98.80;;;;;;5075255;28;20541;-43
2022/03/16 01:45:27;;;;;;;14.77;5.57;;;8.60;99.10;;;;;;5075212;28;20523;-43
2022/03/16 01:47:53;;;;;;;15.40;5.63;;;8.60;98.70;;;;;;5075101;28;20479;-43
2022/03/16 01:50:22;;;;;;;11.40;5.07;;;8.60;98.70;;;;;;5074403;28;20479;-44
2022/03/16 01:52:50;;;;;;;17.43;5.73;;;8.50;98.70;;;;;;5074857;28;20896;-43
2022/03/16 01:55:17;;;;;;;11.83;6.60;;;8.50;98.50;;;;;;5074453;28;20567;-42
2022/03/16 01:57:48;;;;;;;18.00;7.53;;;8.40;98.20;;;;;;5074874;28;20479;-42
2022/03/16 02:00:16;;;;;;;22.03;6.90;;;8.40;99.00;;;;;;5074736;28;20444;-42
2022/03/16 02:02:43;;;;;;;23.63;7.20;;;8.40;99.40;;;;;;5074512;28;20504;-42
2022/03/16 02:05:10;;;;;;;12.60;5.87;;;8.40;99.30;;;;;;5074742;28;20906;-43
2022/03/16 02:07:39;;;;;;;15.03;6.03;;;8.30;99.40;;;;;;5074676;28;20953;-42
2022/03/16 02:10:07;;;;;;;22.40;7.13;;;8.30;99.30;;;;;;5074204;28;20468;-42
2022/03/16 02:12:43;;;;;;;16.57;5.63;;;8.30;99.60;;;;;;5074514;28;20496;-42
2022/03/16 02:15:11;;;;;;;14.77;6.07;;;8.30;99.60;;;;;;5074439;28;20436;-42
2022/03/16 02:17:38;;;;;;;13.43;4.83;;;7.90;99.90;;;;;;5074473;28;20447;-42
2022/03/16 02:20:06;;;;;;;16.10;4.90;;;7.70;99.90;;;;;;5074260;28;20971;-43
2022/03/16 02:22:35;;;;;;;11.70;5.03;;;7.70;99.90;;;;;;5074075;28;20544;-42
2022/03/16 02:25:04;;;;;;;19.50;5.13;;;7.80;99.90;;;;;;5074201;28;20527;-42
2022/03/16 02:27:31;;;;;;;13.93;5.70;;;7.70;99.90;;;;;;5074204;28;20444;-43
2022/03/16 02:29:58;;;;;;;17.37;7.30;;;7.50;99.90;;;;;;5074456;28;20472;-42
2022/03/16 02:32:25;;;;;;;15.17;6.87;;;7.30;99.90;;;;;;5074175;28;20464;-43
2022/03/16 02:34:52;;;;;;;15.83;6.00;;;7.20;99.90;;;;;;5074351;28;20467;-42
2022/03/16 02:37:19;;;;;;;20.00;6.30;;;7.10;99.90;;;;;;5074255;28;20514;-42
2022/03/16 02:39:47;;;;;;;19.00;6.60;;;7.30;99.90;;;;;;5073675;28;20476;-42
2022/03/16 02:42:15;;;;;;;14.13;6.20;;;7.40;99.90;;;;;;5073735;28;20473;-43
2022/03/16 02:44:42;;;;;;;15.57;5.07;;;7.40;99.90;;;;;;5073763;28;20482;-43
2022/03/16 02:47:10;;;;;;;18.43;5.60;;;7.50;99.90;;;;;;5073893;28;20975;-42
2022/03/16 02:49:36;;;;;;;14.97;6.03;;;7.60;99.90;;;;;;5073591;28;20538;-43
2022/03/16 02:52:07;;;;;;;16.77;6.57;;;7.80;99.90;;;;;;5073785;28;20543;-43
2022/03/16 02:54:34;;;;;;;15.00;6.17;;;8.00;99.90;;;;;;5073396;28;20476;-42
2022/03/16 02:57:01;;;;;;;13.60;5.90;;;8.10;99.90;;;;;;5073586;28;20491;-43
2022/03/16 02:59:30;;;;;;;17.80;5.70;;;8.00;99.90;;;;;;5073555;28;20869;-43
2022/03/16 03:01:57;;;;;;;15.33;5.20;;;7.90;99.90;;;;;;5073136;28;21005;-42
2022/03/16 03:04:24;;;;;;;14.63;5.30;;;8.00;99.90;;;;;;5073807;28;20444;-42
2022/03/16 03:06:51;;;;;;;20.10;6.23;;;8.10;99.90;;;;;;5073597;28;20464;-42
2022/03/16 03:09:17;;;;;;;14.70;5.30;;;8.20;99.90;;;;;;5073257;28;20464;-44
2022/03/16 03:11:44;;;;;;;7.20;5.47;;;8.20;99.90;;;;;;5073247;28;20535;-43
2022/03/16 03:14:11;;;;;;;15.23;5.93;;;8.20;99.90;;;;;;5073465;28;20490;-43
2022/03/16 03:16:39;;;;;;;13.50;6.00;;;8.20;99.90;;;;;;5073603;28;20570;-42
2022/03/16 03:19:06;;;;;;;11.80;6.30;;;8.10;99.90;;;;;;5072949;28;20520;-43
2022/03/16 03:21:33;;;;;;;18.33;5.97;;;8.20;99.90;;;;;;5073106;28;20483;-42
2022/03/16 03:24:00;;;;;;;14.17;5.33;;;8.20;99.90;;;;;;5073264;28;20470;-42
2022/03/16 03:26:27;;;;;;;12.20;4.70;;;8.30;99.90;;;;;;5073380;28;20472;-43
2022/03/16 03:28:54;;;;;;;16.67;6.10;;;8.20;99.90;;;;;;5073109;28;20479;-42
2022/03/16 03:31:21;;;;;;;13.90;4.67;;;8.20;99.90;;;;;;5072971;28;20444;-42
2022/03/16 03:33:50;;;;;;;22.57;5.70;;;8.00;99.90;;;;;;5072999;28;20915;-42
2022/03/16 03:36:17;;;;;;;11.03;5.80;;;8.10;99.90;;;;;;5072598;28;20483;-43
2022/03/16 03:38:44;;;;;;;11.60;5.13;;;8.10;99.90;;;;;;5072885;28;20472;-44
2022/03/16 03:41:11;;;;;;;19.63;5.20;;;8.10;99.90;;;;;;5072801;28;20472;-42
2022/03/16 03:43:38;;;;;;;10.43;5.37;;;8.10;99.90;;;;;;5072640;28;20878;-44
2022/03/16 03:46:04;;;;;;;13.13;5.23;;;7.90;99.90;;;;;;5072574;28;20813;-43
2022/03/16 03:48:31;;;;;;;15.57;5.10;;;7.70;99.90;;;;;;5072425;28;20527;-43
2022/03/16 03:51:00;;;;;;;13.40;5.13;;;7.80;99.90;;;;;;5072793;28;20873;-42
2022/03/16 03:53:27;;;;;;;14.20;5.87;;;7.90;99.90;;;;;;5072435;28;20887;-42
2022/03/16 03:55:54;;;;;;;18.17;4.63;;;7.90;99.90;;;;;;5072557;28;20515;-43
2022/03/16 03:58:20;;;;;;;13.80;6.67;;;7.70;99.90;;;;;;5072544;28;20527;-43
2022/03/16 04:00:49;;;;;;;9.17;4.00;;;7.60;99.90;;;;;;5072283;28;20479;-43
2022/03/16 04:03:16;;;;;;;18.10;5.60;;;7.60;99.90;;;;;;5072266;28;20476;-42
2022/03/16 04:05:43;;;;;;;15.90;5.30;;;7.60;99.90;;;;;;5072317;28;20546;-42
2022/03/16 04:08:11;;;;;;;9.27;4.60;;;7.70;99.90;;;;;;5072812;28;20480;-42
2022/03/16 04:10:39;;;;;;;13.63;4.23;;;7.70;99.90;;;;;;5071844;28;20519;-42
2022/03/16 04:13:06;;;;;;;10.67;4.57;;;7.70;99.90;;;;;;5072096;28;20555;-43
2022/03/16 04:15:33;;;;;;;21.77;4.67;;;7.60;99.90;;;;;;5072495;28;20808;-42
2022/03/16 04:18:00;;;;;;;13.17;4.60;;;7.60;99.90;;;;;;5072290;28;20476;-42
2022/03/16 04:20:27;;;;;;;11.27;4.33;;;7.40;99.90;;;;;;5071803;28;20450;-42
2022/03/16 04:22:54;;;;;;;11.03;4.20;;;7.10;99.90;;;;;;5072107;28;20496;-43
2022/03/16 04:25:22;;;;;;;18.33;6.23;;;7.10;99.90;;;;;;5071957;28;20476;-44
2022/03/16 04:27:49;;;;;;;16.60;5.00;;;7.10;99.90;;;;;;5071869;28;20464;-42
2022/03/16 04:30:16;;;;;;;10.23;4.47;;;7.20;99.90;;;;;;5071765;28;20483;-42
2022/03/16 04:32:43;;;;;;;13.13;4.93;;;7.30;99.90;;;;;;5071791;28;20520;-42
2022/03/16 04:35:10;;;;;;;17.03;5.43;;;7.30;99.90;;;;;;5071862;28;20886;-42
2022/03/16 04:37:37;;;;;;;11.63;4.97;;;7.20;99.90;;;;;;5071407;28;20555;-43
2022/03/16 04:40:05;;;;;;;10.43;4.80;;;6.90;99.90;;;;;;5071482;28;20903;-42
2022/03/16 04:42:33;;;;;;;16.20;5.50;;;6.90;99.90;;;;;;5071680;28;20500;-43
2022/03/16 04:45:00;;;;;;;12.80;4.53;;;7.00;99.90;;;;;;5072299;28;20524;-43
2022/03/16 04:47:27;;;;;;;14.90;5.50;;;7.10;99.90;;;;;;5071701;28;20480;-42
2022/03/16 04:49:54;;;;;;;18.43;5.13;;;7.30;99.90;;;;;;5071384;28;20980;-44
2022/03/16 04:52:20;;;;;;;8.47;4.70;;;7.10;99.90;;;;;;5071676;28;20484;-42
2022/03/16 04:54:47;;;;;;;17.00;5.47;;;6.90;99.90;;;;;;5071177;28;20535;-42
2022/03/16 04:57:14;;;;;;;11.20;5.13;;;6.80;99.90;;;;;;5070822;28;20586;-43
2022/03/16 04:59:43;;;;;;;16.20;6.40;;;6.90;99.90;;;;;;5071778;28;20490;-42
2022/03/16 05:02:10;;;;;;;13.20;5.70;;;6.90;99.90;;;;;;5070910;28;20580;-42
2022/03/16 05:04:36;;;;;;;8.97;4.73;;;6.80;99.90;;;;;;5071666;28;20858;-44
2022/03/16 05:07:04;;;;;;;24.57;12.43;;;6.80;99.90;;;;;;5071481;28;20527;-42
2022/03/16 05:09:31;;;;;;;16.03;6.13;;;6.90;99.90;;;;;;5071016;28;20472;-43
2022/03/16 05:11:58;;;;;;;19.87;6.10;;;7.10;99.90;;;;;;5071791;28;20511;-42
2022/03/16 05:14:24;;;;;;;9.50;5.40;;;7.20;99.90;;;;;;5072111;28;20476;-42
2022/03/16 05:16:53;;;;;;;15.80;9.37;;;7.30;99.90;;;;;;5071323;28;21029;-44
2022/03/16 05:19:20;;;;;;;18.47;7.30;;;7.20;99.90;;;;;;5071204;28;20455;-42
2022/03/16 05:21:48;;;;;;;21.80;11.70;;;6.80;99.90;;;;;;5071630;28;20472;-41
2022/03/16 05:24:15;;;;;;;17.03;6.70;;;6.80;99.90;;;;;;5071202;28;20487;-42
2022/03/16 05:26:42;;;;;;;15.87;6.00;;;6.80;99.90;;;;;;5071541;28;20461;-44
2022/03/16 05:29:09;;;;;;;18.73;11.30;;;7.00;99.90;;;;;;5071180;28;20570;-42
2022/03/16 05:31:36;;;;;;;26.93;17.00;;;7.10;99.90;;;;;;5071266;28;20536;-42
2022/03/16 05:34:05;;;;;;;13.80;6.90;;;7.10;99.90;;;;;;5071255;28;20444;-43
2022/03/16 05:36:31;;;;;;;13.67;5.43;;;7.10;99.90;;;;;;5071387;28;20558;-42
2022/03/16 05:38:58;;;;;;;18.17;6.67;;;7.20;99.90;;;;;;5070973;28;20996;-42
2022/03/16 05:41:25;;;;;;;19.90;8.40;;;7.20;99.90;;;;;;5071464;28;20524;-43
2022/03/16 05:43:52;;;;;;;17.50;7.40;;;7.30;99.90;;;;;;5070825;28;20551;-42
2022/03/16 05:46:19;;;;;;;21.23;7.77;;;7.00;99.90;;;;;;5070963;28;20847;-43
2022/03/16 05:48:46;;;;;;;18.63;6.90;;;6.60;99.90;;;;;;5071383;28;20483;-42
2022/03/16 05:51:14;;;;;;;13.17;7.10;;;6.70;99.90;;;;;;5070784;28;20488;-42
2022/03/16 05:53:41;;;;;;;19.37;8.60;;;6.80;99.90;;;;;;5070680;28;20501;-42
2022/03/16 05:56:08;;;;;;;15.17;8.13;;;7.00;99.90;;;;;;5070967;28;20480;-43
2022/03/16 05:58:35;;;;;;;18.33;6.20;;;7.10;99.90;;;;;;5071175;28;20444;-41
2022/03/16 06:01:02;;;;;;;18.20;5.67;;;7.20;99.90;;;;;;5071390;28;20749;-43
2022/03/16 06:03:29;;;;;;;13.40;6.40;;;7.30;99.90;;;;;;5070689;28;20547;-42
2022/03/16 06:05:56;;;;;;;12.27;5.90;;;7.40;99.90;;;;;;5070925;28;20476;-42
2022/03/16 06:08:24;;;;;;;12.53;5.40;;;7.40;99.90;;;;;;5073418;28;20713;-44
2022/03/16 06:10:51;;;;;;;18.80;4.63;;;7.40;99.90;;;;;;5074235;28;20475;-42
2022/03/16 06:13:18;;;;;;;17.43;6.20;;;7.50;99.90;;;;;;5074660;28;20535;-42
2022/03/16 06:15:46;;;;;;;19.20;9.67;;;7.60;99.90;;;;;;5074426;28;20536;-42
2022/03/16 06:18:13;;;;;;;12.33;8.07;;;7.60;99.90;;;;;;5074651;28;20875;-42
2022/03/16 06:20:41;;;;;;;19.33;8.00;;;7.60;99.90;;;;;;5074264;28;20436;-42
2022/03/16 06:23:08;;;;;;;14.07;5.73;;;7.60;99.90;;;;;;5074403;28;20492;-44
2022/03/16 06:25:37;;;;;;;17.50;5.60;;;7.50;99.90;;;;;;5074360;28;20449;-43
2022/03/16 06:28:04;;;;;;;16.77;6.40;;;7.50;99.90;;;;;;5074475;28;20865;-43
2022/03/16 06:30:31;;;;;;;18.03;6.67;;;7.60;99.90;;;;;;5074361;28;20483;-42
2022/03/16 06:32:58;;;;;;;13.73;7.17;;;7.70;99.90;;;;;;5074678;28;20605;-44
2022/03/16 06:35:25;;;;;;;18.77;7.50;;;7.80;99.90;;;;;;5074095;28;20480;-42
2022/03/16 06:37:52;;;;;;;11.03;6.47;;;7.90;99.90;;;;;;5073995;28;20503;-42
2022/03/16 06:40:19;;;;;;;16.10;7.63;;;7.90;99.90;;;;;;5073649;28;20487;-42
2022/03/16 06:42:49;;;;;;;14.13;5.80;;;7.80;99.90;;;;;;5074194;28;20730;-42
2022/03/16 06:45:16;;;;;;;16.67;7.30;;;7.90;99.90;;;;;;5074605;28;20586;-42
2022/03/16 06:47:43;;;;;;;17.00;6.03;;;7.90;99.90;;;;;;5074059;28;20925;-43
2022/03/16 06:50:11;;;;;;;15.57;7.03;;;8.00;99.90;;;;;;5073550;28;20490;-42
2022/03/16 06:52:39;;;;;;;20.13;5.20;;;8.00;99.90;;;;;;5073670;28;20466;-43
2022/03/16 06:55:06;;;;;;;11.73;5.33;;;7.80;99.90;;;;;;5073490;28;20505;-44
2022/03/16 06:57:33;;;;;;;13.50;7.53;;;7.60;99.90;;;;;;5073652;28;20567;-42
2022/03/16 07:00:02;;;;;;;14.70;7.23;;;7.40;99.90;;;;;;5073447;28;21096;-42
2022/03/16 07:02:29;;;;;;;16.60;8.20;;;7.20;99.90;;;;;;5089719;22;20474;-42
2022/03/16 07:04:56;;;;;;;27.97;13.43;;;7.10;99.90;;;;;;5073052;28;20499;-44
2022/03/16 07:07:25;;;;;;;20.00;8.53;;;7.00;99.90;;;;;;5073278;28;20468;-44
2022/03/16 07:09:52;;;;;;;17.83;9.10;;;6.90;99.90;;;;;;5072566;28;21119;-44
2022/03/16 07:12:19;;;;;;;15.80;9.27;;;6.90;99.90;;;;;;5073304;28;20444;-44
2022/03/16 07:14:46;;;;;;;18.43;9.30;;;6.90;99.90;;;;;;5073384;28;20484;-44
2022/03/16 07:17:15;;;;;;;19.57;8.20;;;6.90;99.90;;;;;;5072904;28;21041;-44
2022/03/16 07:19:42;;;;;;;16.77;8.07;;;7.00;99.90;;;;;;5072112;28;20945;-45
2022/03/16 07:22:08;;;;;;;18.87;9.23;;;6.90;99.90;;;;;;5073431;28;20472;-45
2022/03/16 07:24:35;;;;;;;20.40;9.53;;;6.90;99.90;;;;;;5073006;28;20547;-45
2022/03/16 07:27:05;;;;;;;15.43;8.57;;;6.90;99.90;;;;;;5072953;28;20481;-44
2022/03/16 07:29:32;;;;;;;15.67;7.63;;;6.90;99.90;;;;;;5072566;28;20446;-44
2022/03/16 07:31:59;;;;;;;20.97;8.30;;;7.10;99.90;;;;;;5072780;28;20472;-44
2022/03/16 07:34:27;;;;;;;21.73;11.10;;;7.20;99.90;;;;;;5072941;28;20460;-45
2022/03/16 07:36:54;;;;;;;23.30;9.60;;;7.40;99.90;;;;;;5072344;28;20478;-46
2022/03/16 07:39:21;;;;;;;29.17;9.63;;;7.50;99.90;;;;;;5071774;28;20523;-44
2022/03/16 07:41:48;;;;;;;17.80;10.30;;;7.60;99.90;;;;;;5072376;28;20485;-44
2022/03/16 07:44:16;;;;;;;25.00;12.10;;;7.70;99.90;;;;;;5072534;28;20985;-44
2022/03/16 07:46:42;;;;;;;24.07;12.60;;;7.70;99.90;;;;;;5072770;28;20452;-44
2022/03/16 07:49:09;;;;;;;14.23;9.57;;;7.60;99.90;;;;;;5071842;28;20489;-44
2022/03/16 07:51:38;;;;;;;20.57;10.70;;;7.50;99.90;;;;;;5072602;28;20472;-44
2022/03/16 07:54:05;;;;;;;21.77;10.40;;;7.40;99.90;;;;;;5071768;28;20539;-44
2022/03/16 07:56:32;;;;;;;19.87;10.90;;;7.30;99.90;;;;;;5072542;28;20474;-44
2022/03/16 07:59:01;;;;;;;23.20;13.23;;;7.20;99.90;;;;;;5072184;28;20484;-44
2022/03/16 08:01:28;;;;;;;25.17;12.70;;;7.20;99.90;;;;;;5072070;28;20449;-47
2022/03/16 08:03:55;;;;;;;20.53;12.57;;;7.30;99.90;;;;;;5071865;28;20879;-44
2022/03/16 08:06:22;;;;;;;19.80;10.27;;;7.40;99.90;;;;;;5072614;28;20487;-44
2022/03/16 08:08:50;;;;;;;18.50;10.00;;;7.40;99.90;;;;;;5071381;28;20534;-44
2022/03/16 08:11:17;;;;;;;19.47;10.20;;;7.50;99.90;;;;;;5070904;28;20483;-44
2022/03/16 08:13:44;;;;;;;19.30;10.40;;;7.60;99.90;;;;;;5071341;28;20491;-44
2022/03/16 08:16:11;;;;;;;18.80;10.13;;;7.60;99.90;;;;;;5071707;28;20846;-44
2022/03/16 08:18:38;;;;;;;21.17;11.27;;;7.70;99.90;;;;;;5071382;28;20519;-44
2022/03/16 08:21:06;;;;;;;24.97;11.63;;;7.70;99.90;;;;;;5071789;28;20874;-44
2022/03/16 08:23:33;;;;;;;27.30;13.73;;;7.90;99.90;;;;;;5071789;28;20854;-45
2022/03/16 08:26:02;;;;;;;19.30;10.13;;;8.10;99.90;;;;;;5071754;28;20955;-44
2022/03/16 08:28:29;;;;;;;22.57;11.00;;;8.10;99.90;;;;;;5071712;28;21032;-44
2022/03/16 08:30:56;;;;;;;19.67;10.67;;;8.20;99.90;;;;;;5071437;28;20483;-45
2022/03/16 08:33:23;;;;;;;20.73;10.53;;;8.10;99.90;;;;;;5071467;28;20492;-44
2022/03/16 08:35:50;;;;;;;17.80;9.00;;;8.20;99.90;;;;;;5071600;28;20937;-44
2022/03/16 08:38:17;;;;;;;21.30;10.50;;;8.30;99.90;;;;;;5071646;28;20568;-44
2022/03/16 08:40:44;;;;;;;19.77;10.47;;;8.40;99.90;;;;;;5071630;28;20495;-46
2022/03/16 08:43:13;;;;;;;18.93;9.83;;;8.50;99.90;;;;;;5071774;28;20492;-44
2022/03/16 08:45:40;;;;;;;19.53;8.33;;;8.50;99.90;;;;;;5071503;28;20976;-44
2022/03/16 08:48:07;;;;;;;16.83;7.73;;;8.60;99.90;;;;;;5071375;28;20447;-45
2022/03/16 08:50:34;;;;;;;24.57;11.27;;;8.70;99.90;;;;;;5071086;28;20993;-44
2022/03/16 08:53:01;;;;;;;18.10;9.77;;;8.80;99.90;;;;;;5071310;28;20522;-46
2022/03/16 08:55:28;;;;;;;17.77;9.83;;;8.90;99.90;;;;;;5070949;28;20479;-45
2022/03/16 08:57:57;;;;;;;20.67;9.83;;;8.80;99.90;;;;;;5071970;28;20576;-44
2022/03/16 09:00:26;;;;;;;21.67;9.13;;;8.90;99.90;;;;;;5071209;28;20444;-44
2022/03/16 09:02:53;;;;;;;17.40;9.73;;;9.00;99.90;;;;;;5070789;28;20472;-48
2022/03/16 09:05:20;;;;;;;18.90;9.67;;;9.00;99.90;;;;;;5071754;28;20440;-45
2022/03/16 09:07:47;;;;;;;27.50;9.70;;;8.90;99.90;;;;;;5071216;28;20464;-45
2022/03/16 09:10:14;;;;;;;18.30;9.93;;;8.90;99.90;;;;;;5071037;28;20859;-44
2022/03/16 09:12:41;;;;;;;24.90;10.00;;;8.90;99.90;;;;;;5071226;28;20497;-44
2022/03/16 09:15:08;;;;;;;21.03;9.53;;;8.90;99.90;;;;;;5071231;28;20524;-44
2022/03/16 09:17:36;;;;;;;15.43;9.60;;;8.90;99.90;;;;;;5071340;28;20511;-44
2022/03/16 09:20:05;;;;;;;18.30;9.80;;;9.00;99.90;;;;;;5071404;28;20481;-44
2022/03/16 09:22:32;;;;;;;19.83;10.20;;;9.10;99.90;;;;;;5071094;28;21011;-44
2022/03/16 09:24:59;;;;;;;19.67;9.60;;;9.20;99.90;;;;;;5071138;28;20480;-45
2022/03/16 09:27:27;;;;;;;17.97;8.90;;;9.20;99.90;;;;;;5071351;28;20468;-44
2022/03/16 09:29:55;;;;;;;24.37;9.70;;;9.20;99.90;;;;;;5070897;28;20486;-45
2022/03/16 09:32:22;;;;;;;25.73;10.53;;;9.20;99.90;;;;;;5070956;28;20964;-44
2022/03/16 09:34:52;;;;;;;20.47;9.40;;;9.20;99.90;;;;;;5070780;28;20444;-44
2022/03/16 09:37:18;;;;;;;16.30;10.33;;;9.30;99.90;;;;;;5071255;28;20475;-44
2022/03/16 09:39:46;;;;;;;19.90;9.00;;;9.40;99.90;;;;;;5069595;28;20523;-45
2022/03/16 09:42:13;;;;;;;17.60;9.03;;;9.30;99.90;;;;;;5071167;28;20448;-45
2022/03/16 09:44:41;;;;;;;20.20;8.53;;;9.40;99.90;;;;;;5075413;28;20444;-44
2022/03/16 09:47:09;;;;;;;18.73;10.00;;;9.50;99.90;;;;;;5074578;28;20455;-44
2022/03/16 09:49:37;;;;;;;15.17;8.57;;;9.60;99.90;;;;;;5074197;28;20945;-44
2022/03/16 09:52:09;;;;;;;18.17;9.27;;;9.80;99.90;;;;;;5074431;28;20436;-44
2022/03/16 09:54:36;;;;;;;14.07;9.83;;;9.90;99.90;;;;;;5074401;28;20859;-45
2022/03/16 09:57:04;;;;;;;15.63;7.80;;;9.80;99.90;;;;;;5075268;28;20444;-46
2022/03/16 09:59:30;;;;;;;16.23;8.93;;;9.80;99.90;;;;;;5074515;28;20950;-44
2022/03/16 10:02:06;;;;;;;16.10;9.90;;;9.90;99.90;;;;;;5074463;28;20468;-44
2022/03/16 10:04:36;;;;;;;19.37;9.03;;;10.00;99.90;;;;;;5074523;28;20471;-42
2022/03/16 10:07:04;;;;;;;18.23;8.83;;;10.20;99.90;;;;;;5074937;28;20952;-42
2022/03/16 10:15:10;;;;;;;12.03;8.33;;;10.60;99.90;;;;;;5074626;28;20783;-42
2022/03/16 10:17:46;;;;;;;13.93;8.10;;;10.70;99.90;;;;;;5074724;28;20446;-43
2022/03/16 10:20:26;;;;;;;11.88;8.15;;;10.80;99.90;;;;;;5074193;28;20445;-43
2022/03/16 10:23:01;;;;;;;14.10;7.33;;;11.00;99.90;;;;;;5074409;28;20312;-43
2022/03/16 10:25:31;;;;;;;16.13;8.83;;;11.00;99.90;;;;;;5074332;28;20440;-42
2022/03/16 10:28:12;;;;;;;14.00;8.03;;;11.10;99.90;;;;;;5074091;28;20497;-42
2022/03/16 10:30:40;;;;;;;16.27;8.40;;;11.20;99.90;;;;;;5073922;28;20870;-42
2022/03/16 10:33:08;;;;;;;13.77;8.77;;;11.30;99.90;;;;;;5073796;28;20457;-42
2022/03/16 10:35:35;;;;;;;18.63;7.87;;;11.40;99.90;;;;;;5074203;28;20450;-42
2022/03/16 10:38:10;;;;;;;17.70;8.73;;;11.40;99.90;;;;;;5073205;28;20566;-43
2022/03/16 10:40:40;;;;;;;24.37;8.57;;;11.60;99.90;;;;;;5073736;28;20451;-42
2022/03/16 10:49:03;;;;;;;22.97;9.10;;;11.80;99.90;;;;;;5073686;28;20424;-43
2022/03/16 10:51:30;;;;;;;16.63;9.13;;;11.70;99.90;;;;;;5073659;28;20873;-42
2022/03/16 10:54:00;;;;;;;15.63;7.97;;;11.80;99.90;;;;;;5072292;28;20502;-42
2022/03/16 10:56:30;;;;;;;16.77;9.53;;;11.80;99.90;;;;;;5073752;28;20444;-42
2022/03/16 10:58:58;;;;;;;24.07;9.37;;;11.90;99.90;;;;;;5073429;28;20512;-42
2022/03/16 11:01:27;;;;;;;14.93;8.10;;;11.90;99.90;;;;;;5073315;28;20447;-43
2022/03/16 11:03:58;;;;;;;20.87;9.10;;;11.90;99.90;;;;;;5073360;28;20468;-43
2022/03/16 11:06:25;;;;;;;16.77;9.23;;;12.00;99.90;;;;;;5073637;28;20552;-42
2022/03/16 11:08:53;;;;;;;17.30;7.93;;;12.10;99.90;;;;;;5073011;28;20468;-43
2022/03/16 11:14:06;;;;;;;12.60;8.50;;;12.20;99.90;;;;;;5073548;28;20987;-42
2022/03/16 11:16:34;;;;;;;15.67;9.33;;;12.10;99.90;;;;;;5073317;28;20480;-42
2022/03/16 11:19:04;;;;;;;12.70;8.87;;;12.00;99.90;;;;;;5073176;28;20567;-43
2022/03/16 11:21:36;;;;;;;16.30;9.03;;;12.20;99.90;;;;;;5073007;28;20444;-43
2022/03/16 11:24:16;;;;;;;12.00;8.87;;;12.30;99.90;;;;;;5073196;28;20469;-42
2022/03/16 11:27:03;;;;;;;14.93;7.47;;;12.50;99.90;;;;;;5073330;28;20444;-44
2022/03/16 11:29:52;;;;;;;18.30;9.97;;;12.50;99.90;;;;;;5072732;28;20470;-42
2022/03/16 11:32:21;;;;;;;12.37;9.70;;;12.60;99.90;;;;;;5070675;28;20453;-43
2022/03/16 11:34:50;;;;;;;14.17;8.17;;;12.50;99.90;;;;;;5072765;28;20462;-45
2022/03/16 11:37:18;;;;;;;16.10;9.30;;;12.50;99.90;;;;;;5072472;28;20448;-43
2022/03/16 11:39:46;;;;;;;12.57;8.40;;;12.60;99.90;;;;;;5072354;28;20483;-43
2022/03/16 11:42:18;;;;;;;11.47;8.50;;;12.70;99.90;;;;;;5072020;28;20531;-43
2022/03/16 11:44:46;;;;;;;12.10;7.57;;;12.80;99.90;;;;;;5072505;28;20467;-44
2022/03/16 11:47:37;;;;;;;13.83;8.90;;;12.80;99.90;;;;;;5072610;28;20535;-44
2022/03/16 11:50:16;;;;;;;13.50;8.00;;;12.80;99.90;;;;;;5070178;28;20512;-44
2022/03/16 11:53:05;;;;;;;33.67;23.40;;;12.90;99.90;;;;;;5071007;28;20517;-44
2022/03/16 11:55:48;;;;;;;16.93;8.87;;;13.10;99.90;;;;;;5070812;28;20824;-43
2022/03/16 11:58:32;;;;;;;10.70;8.30;;;13.20;99.90;;;;;;5069114;28;20487;-43
2022/03/16 12:01:27;;;;;;;11.53;7.63;;;13.10;99.90;;;;;;5071134;28;20444;-44
2022/03/16 12:04:08;;;;;;;11.33;7.30;;;13.10;99.90;;;;;;5070890;28;20464;-44
2022/03/16 12:06:53;;;;;;;13.27;7.40;;;13.20;99.90;;;;;;5071097;28;20448;-43
2022/03/16 12:09:30;;;;;;;11.47;7.23;;;13.20;99.90;;;;;;5070353;28;20444;-44
2022/03/16 12:15:27;;;;;;;8.47;6.97;;;13.10;99.90;;;;;;5070629;28;20432;-44
2022/03/16 12:18:23;;;;;;;11.13;7.77;;;13.20;99.90;;;;;;5070806;28;20472;-43
2022/03/16 12:20:56;;;;;;;9.77;7.20;;;13.20;99.90;;;;;;5070403;28;20449;-43
2022/03/16 12:23:55;;;;;;;9.00;7.57;;;13.20;99.90;;;;;;5069003;28;20464;-45
2022/03/16 12:26:27;;;;;;;11.70;8.83;;;13.40;99.90;;;;;;5071833;28;20527;-43
2022/03/16 12:29:07;;;;;;;8.70;7.53;;;13.30;99.90;;;;;;5071508;28;20472;-44
2022/03/16 12:31:38;;;;;;;10.93;7.50;;;13.30;99.90;;;;;;5071410;28;20443;-43
2022/03/16 12:34:07;;;;;;;10.40;6.80;;;13.20;99.90;;;;;;5071617;28;20824;-44
2022/03/16 12:36:35;;;;;;;10.07;7.30;;;13.30;99.90;;;;;;5071321;28;20877;-44
2022/03/16 12:39:05;;;;;;;9.07;7.37;;;13.40;99.90;;;;;;5071145;28;20980;-44
2022/03/16 12:44:19;;;;;;;8.80;6.83;;;13.40;99.90;;;;;;5071379;28;21039;-43
2022/03/16 12:46:53;;;;;;;10.70;7.10;;;13.30;99.90;;;;;;5071271;28;20534;-43
2022/03/16 12:49:23;;;;;;;9.87;7.27;;;13.40;99.90;;;;;;5071043;28;20474;-43
2022/03/16 12:51:52;;;;;;;12.10;7.60;;;13.40;99.90;;;;;;5071418;28;20475;-43
2022/03/16 12:54:27;;;;;;;8.90;6.50;;;13.40;99.90;;;;;;5070958;28;20961;-44
2022/03/16 12:56:58;;;;;;;11.83;6.00;;;13.40;99.90;;;;;;5071353;28;20512;-43
2022/03/16 12:59:27;;;;;;;11.30;7.30;;;13.30;99.90;;;;;;5071317;28;20996;-43
2022/03/16 13:01:57;;;;;;;10.03;6.40;;;13.30;99.90;;;;;;5070701;28;20536;-44
2022/03/16 13:04:26;;;;;;;10.13;7.07;;;13.40;99.90;;;;;;5072446;28;20468;-44
2022/03/16 13:06:56;;;;;;;8.40;6.30;;;13.40;99.90;;;;;;5071413;28;21084;-43
2022/03/16 13:09:27;;;;;;;11.83;7.77;;;13.40;99.90;;;;;;5070859;28;20460;-43
2022/03/16 13:12:03;;;;;;;10.97;7.43;;;13.40;99.90;;;;;;5071449;28;20440;-44